createdAt,value
2018-03-18T00:02:27.205Z,100418.43
2018-03-18T00:04:55.379Z,100407.05
2018-03-18T00:07:23.532Z,100416.47
2018-03-18T00:09:51.713Z,100423.84
2018-03-18T00:12:19.835Z,100433.42
2018-03-18T00:14:47.985Z,100422.95
2018-03-18T00:17:16.182Z,100427.67
2018-03-18T00:19:44.321Z,100425.38
2018-03-18T00:22:12.513Z,100422.34
2018-03-18T00:24:40.670Z,100429.68
2018-03-18T00:27:09.098Z,100432.56
2018-03-18T00:29:37.241Z,100429.52
2018-03-18T00:32:05.713Z,100431.68
2018-03-18T00:34:33.932Z,100431.72
2018-03-18T00:37:02.088Z,100431.20
2018-03-18T00:39:30.473Z,100431.45
2018-03-18T00:41:58.823Z,100427.28
2018-03-18T00:44:27.098Z,100434.16
2018-03-18T00:46:55.370Z,100428.56
2018-03-18T00:49:23.849Z,100425.02
2018-03-18T00:52:00.753Z,100432.49
2018-03-18T00:54:29.012Z,100427.89
2018-03-18T00:56:57.270Z,100427.20
2018-03-18T00:59:25.472Z,100424.23
2018-03-18T01:01:53.625Z,100432.39
2018-03-18T01:04:21.790Z,100427.29
2018-03-18T01:06:49.951Z,100416.89
2018-03-18T01:09:18.187Z,100415.91
2018-03-18T01:11:46.381Z,100423.23
2018-03-18T01:14:14.782Z,100422.43
2018-03-18T01:16:42.959Z,100422.05
2018-03-18T01:19:11.106Z,100422.64
2018-03-18T01:21:39.245Z,100431.00
2018-03-18T01:24:11.635Z,100423.53
2018-03-18T01:26:39.784Z,100436.47
2018-03-18T01:29:07.924Z,100421.77
2018-03-18T01:31:36.061Z,100424.76
2018-03-18T01:34:05.438Z,100415.09
2018-03-18T01:36:33.582Z,100430.00
2018-03-18T01:39:01.742Z,100432.85
2018-03-18T01:41:29.918Z,100420.98
2018-03-18T01:43:58.114Z,100420.45
2018-03-18T01:46:26.285Z,100408.91
2018-03-18T01:48:54.434Z,100416.76
2018-03-18T01:51:22.614Z,100414.28
2018-03-18T01:53:50.767Z,100423.91
2018-03-18T01:56:18.921Z,100414.15
2018-03-18T01:58:47.146Z,100407.07
2018-03-18T02:01:15.460Z,100406.72
2018-03-18T02:03:43.603Z,100399.08
2018-03-18T02:06:11.746Z,100404.36
2018-03-18T02:08:39.879Z,100404.62
2018-03-18T02:11:08.041Z,100398.70
2018-03-18T02:13:36.180Z,100394.83
2018-03-18T02:16:04.323Z,100389.68
2018-03-18T02:18:32.524Z,100394.48
2018-03-18T02:21:00.664Z,100403.66
2018-03-18T02:23:28.800Z,100413.85
2018-03-18T02:25:56.942Z,100419.57
2018-03-18T02:28:25.103Z,100397.13
2018-03-18T02:30:53.745Z,100397.03
2018-03-18T02:33:21.883Z,100377.88
2018-03-18T02:35:50.063Z,100393.52
2018-03-18T02:38:18.180Z,100412.28
2018-03-18T02:40:46.421Z,100404.96
2018-03-18T02:43:14.788Z,100397.20
2018-03-18T02:45:42.919Z,100381.72
2018-03-18T02:48:11.072Z,100401.44
2018-03-18T02:50:39.233Z,100413.86
2018-03-18T02:53:07.358Z,100382.91
2018-03-18T02:55:35.497Z,100382.33
2018-03-18T02:58:03.668Z,100380.66
2018-03-18T03:00:31.809Z,100400.30
2018-03-18T03:03:00.125Z,100409.03
2018-03-18T03:05:28.308Z,100389.81
2018-03-18T03:07:56.448Z,100391.48
2018-03-18T03:10:24.670Z,100393.61
2018-03-18T03:12:52.791Z,100396.89
2018-03-18T03:15:21.360Z,100391.86
2018-03-18T03:17:49.515Z,100392.67
2018-03-18T03:20:17.657Z,100382.66
2018-03-18T03:22:45.801Z,100394.79
2018-03-18T03:25:14.060Z,100384.56
2018-03-18T03:27:42.197Z,100407.00
2018-03-18T03:30:10.345Z,100381.30
2018-03-18T03:32:38.472Z,100394.84
2018-03-18T03:35:06.628Z,100399.52
2018-03-18T03:37:34.781Z,100406.80
2018-03-18T03:40:02.969Z,100397.04
2018-03-18T03:42:31.121Z,100410.63
2018-03-18T03:44:59.275Z,100416.61
2018-03-18T03:47:27.508Z,100415.39
2018-03-18T03:49:55.802Z,100403.75
2018-03-18T03:52:23.968Z,100400.23
2018-03-18T03:54:52.106Z,100406.84
2018-03-18T03:57:20.231Z,100410.25
2018-03-18T03:59:48.500Z,100408.77
2018-03-18T04:02:16.634Z,100406.64
2018-03-18T04:04:44.840Z,100404.17
2018-03-18T04:07:13.021Z,100410.37
2018-03-18T04:09:41.150Z,100404.98
2018-03-18T04:12:09.295Z,100410.48
2018-03-18T04:14:37.439Z,100402.23
2018-03-18T04:17:05.615Z,100399.50
2018-03-18T04:19:33.754Z,100411.52
2018-03-18T04:22:01.896Z,100402.41
2018-03-18T04:24:30.060Z,100401.09
2018-03-18T04:26:58.196Z,100411.16
2018-03-18T04:29:26.327Z,100411.96
2018-03-18T04:31:54.470Z,100405.23
2018-03-18T04:34:22.620Z,100410.36
2018-03-18T04:36:50.766Z,100411.78
2018-03-18T04:39:18.899Z,100408.68
2018-03-18T04:41:47.042Z,100417.67
2018-03-18T04:44:15.162Z,100422.77
2018-03-18T04:46:43.317Z,100426.81
2018-03-18T04:49:11.453Z,100414.65
2018-03-18T04:51:39.680Z,100424.02
2018-03-18T04:54:07.835Z,100425.58
2018-03-18T04:56:35.961Z,100422.06
2018-03-18T04:59:04.114Z,100416.09
2018-03-18T05:01:32.248Z,100427.59
2018-03-18T05:04:00.383Z,100424.59
2018-03-18T05:06:28.581Z,100420.36
2018-03-18T05:08:56.859Z,100420.19
2018-03-18T05:11:24.998Z,100419.14
2018-03-18T05:13:53.230Z,100416.14
2018-03-18T05:16:21.378Z,100406.73
2018-03-18T05:18:49.581Z,100424.09
2018-03-18T05:21:17.742Z,100407.02
2018-03-18T05:23:45.875Z,100394.33
2018-03-18T05:26:14.045Z,100433.30
2018-03-18T05:28:42.244Z,100431.03
2018-03-18T05:31:10.389Z,100421.55
2018-03-18T05:33:38.538Z,100429.03
2018-03-18T05:36:06.813Z,100420.84
2018-03-18T05:38:34.952Z,100437.88
2018-03-18T05:41:03.134Z,100442.44
2018-03-18T05:43:31.306Z,100440.27
2018-03-18T05:45:59.430Z,100437.30
2018-03-18T05:48:27.582Z,100435.09
2018-03-18T05:50:59.041Z,100453.19
2018-03-18T05:53:30.426Z,100454.31
2018-03-18T05:55:58.588Z,100462.33
2018-03-18T05:58:26.744Z,100464.00
2018-03-18T06:00:55.084Z,100462.61
2018-03-18T06:03:23.317Z,100460.72
2018-03-18T06:05:51.515Z,100476.29
2018-03-18T06:08:19.678Z,100476.16
2018-03-18T06:10:47.936Z,100481.26
2018-03-18T06:13:16.068Z,100481.80
2018-03-18T06:15:44.239Z,100492.55
2018-03-18T06:18:12.468Z,100485.03
2018-03-18T06:20:40.878Z,100508.92
2018-03-18T06:23:09.026Z,100485.41
2018-03-18T06:25:37.175Z,100484.29
2018-03-18T06:28:05.408Z,100499.69
2018-03-18T06:30:33.543Z,100486.84
2018-03-18T06:33:01.701Z,100483.30
2018-03-18T06:35:29.871Z,100491.91
2018-03-18T06:37:58.019Z,100498.16
2018-03-18T06:40:26.170Z,100498.49
2018-03-18T06:42:54.344Z,100501.96
2018-03-18T06:45:22.485Z,100510.47
2018-03-18T06:47:50.621Z,100498.02
2018-03-18T06:50:18.769Z,100498.14
2018-03-18T06:52:46.911Z,100497.45
2018-03-18T06:55:15.066Z,100525.14
2018-03-18T06:57:43.203Z,100508.73
2018-03-18T07:00:11.365Z,100505.94
2018-03-18T07:02:39.498Z,100511.84
2018-03-18T07:05:07.631Z,100503.61
2018-03-18T07:07:35.773Z,100505.03
2018-03-18T07:10:04.747Z,100504.27
2018-03-18T07:12:32.955Z,100508.37
2018-03-18T07:15:01.102Z,100515.07
2018-03-18T07:17:29.227Z,100519.54
2018-03-18T07:19:57.402Z,100514.80
2018-03-18T07:22:25.552Z,100520.73
2018-03-18T07:24:53.697Z,100519.83
2018-03-18T07:27:21.840Z,100533.23
2018-03-18T07:29:49.959Z,100525.67
2018-03-18T07:32:18.187Z,100523.44
2018-03-18T07:34:46.339Z,100531.53
2018-03-18T07:37:14.470Z,100525.83
2018-03-18T07:39:42.610Z,100524.70
2018-03-18T07:42:10.782Z,100537.78
2018-03-18T07:44:38.911Z,100532.64
2018-03-18T07:47:07.061Z,100538.13
2018-03-18T07:49:35.215Z,100537.18
2018-03-18T07:52:03.372Z,100537.97
2018-03-18T07:54:31.520Z,100534.89
2018-03-18T07:56:59.691Z,100542.75
2018-03-18T07:59:27.825Z,100555.09
2018-03-18T08:01:55.955Z,100545.44
2018-03-18T08:04:24.094Z,100546.63
2018-03-18T08:06:52.260Z,100548.34
2018-03-18T08:09:20.397Z,100550.32
2018-03-18T08:11:48.534Z,100561.77
2018-03-18T08:14:16.685Z,100558.82
2018-03-18T08:16:44.896Z,100551.48
2018-03-18T08:19:13.101Z,100562.33
2018-03-18T08:21:41.276Z,100572.49
2018-03-18T08:24:09.416Z,100576.27
2018-03-18T08:26:37.550Z,100568.72
2018-03-18T08:29:05.695Z,100579.16
2018-03-18T08:31:33.904Z,100580.30
2018-03-18T08:34:02.040Z,100588.31
2018-03-18T08:36:30.193Z,100575.36
2018-03-18T08:38:58.333Z,100562.61
2018-03-18T08:41:26.480Z,100580.09
2018-03-18T08:43:54.625Z,100566.10
2018-03-18T08:46:22.743Z,100564.59
2018-03-18T08:48:50.892Z,100572.06
2018-03-18T08:51:19.035Z,100584.48
2018-03-18T08:53:47.158Z,100577.75
2018-03-18T08:56:15.295Z,100576.81
2018-03-18T08:58:43.428Z,100574.59
2018-03-18T09:01:11.573Z,100583.38
2018-03-18T09:03:39.712Z,100586.42
2018-03-18T09:06:07.875Z,100583.52
2018-03-18T09:08:36.021Z,100587.89
2018-03-18T09:11:04.257Z,100587.80
2018-03-18T09:13:32.428Z,100586.75
2018-03-18T09:16:00.569Z,100586.42
2018-03-18T09:18:28.736Z,100594.80
2018-03-18T09:20:56.947Z,100605.22
2018-03-18T09:23:25.116Z,100592.16
2018-03-18T09:25:53.249Z,100598.61
2018-03-18T09:28:21.413Z,100612.59
2018-03-18T09:30:49.634Z,100610.16
2018-03-18T09:33:17.766Z,100603.61
2018-03-18T09:35:45.927Z,100606.16
2018-03-18T09:38:14.090Z,100625.11
2018-03-18T09:40:42.267Z,100610.18
2018-03-18T09:43:10.435Z,100618.22
2018-03-18T09:45:38.552Z,100609.98
2018-03-18T09:48:06.708Z,100617.67
2018-03-18T09:50:34.863Z,100623.95
2018-03-18T09:53:03.018Z,100612.48
2018-03-18T09:55:31.408Z,100611.44
2018-03-18T09:57:59.688Z,100613.70
2018-03-18T10:00:27.828Z,100610.78
2018-03-18T10:02:56.019Z,100609.98
2018-03-18T10:05:24.162Z,100608.74
2018-03-18T10:07:52.368Z,100621.19
2018-03-18T10:10:20.534Z,100610.60
2018-03-18T10:12:48.662Z,100611.73
2018-03-18T10:15:16.808Z,100635.37
2018-03-18T10:17:44.962Z,100620.54
2018-03-18T10:20:13.147Z,100606.02
2018-03-18T10:22:41.219Z,100642.58
2018-03-18T10:25:09.372Z,100617.69
2018-03-18T10:27:37.519Z,100619.16
2018-03-18T10:30:05.651Z,100620.02
2018-03-18T10:32:33.813Z,100628.30
2018-03-18T10:35:01.951Z,100635.83
2018-03-18T10:37:30.124Z,100637.47
2018-03-18T10:39:58.289Z,100624.77
2018-03-18T10:42:26.468Z,100642.51
2018-03-18T10:44:54.616Z,100624.38
2018-03-18T10:47:22.752Z,100636.95
2018-03-18T10:49:50.883Z,100640.96
2018-03-18T10:52:19.022Z,100632.27
2018-03-18T10:54:47.175Z,100631.33
2018-03-18T10:57:15.302Z,100637.24
2018-03-18T10:59:43.430Z,100637.20
2018-03-18T11:02:11.585Z,100632.09
2018-03-18T11:04:39.713Z,100628.77
2018-03-18T11:07:07.866Z,100626.87
2018-03-18T11:09:36.008Z,100626.13
2018-03-18T11:12:04.136Z,100640.40
2018-03-18T11:14:32.272Z,100625.51
2018-03-18T11:17:00.410Z,100620.20
2018-03-18T11:19:28.549Z,100620.00
2018-03-18T11:21:56.712Z,100612.98
2018-03-18T11:24:24.829Z,100607.69
2018-03-18T11:26:52.963Z,100617.16
2018-03-18T11:29:21.088Z,100605.81
2018-03-18T11:31:49.231Z,100605.66
2018-03-18T11:34:24.286Z,100609.95
2018-03-18T11:36:52.425Z,100615.97
2018-03-18T11:39:23.566Z,100602.11
2018-03-18T11:41:51.719Z,100621.00
2018-03-18T11:44:19.863Z,100613.75
2018-03-18T11:46:47.994Z,100603.24
2018-03-18T11:49:16.159Z,100598.84
2018-03-18T11:51:44.298Z,100607.80
2018-03-18T11:54:12.448Z,100603.50
2018-03-18T11:56:40.568Z,100610.38
2018-03-18T11:59:08.716Z,100602.03
2018-03-18T12:01:36.844Z,100599.53
2018-03-18T12:04:04.988Z,100606.65
2018-03-18T12:06:33.153Z,100592.02
2018-03-18T12:09:01.298Z,100591.41
2018-03-18T12:11:29.446Z,100606.14
2018-03-18T12:13:57.601Z,100596.06
2018-03-18T12:16:25.733Z,100588.53
2018-03-18T12:18:53.867Z,100596.44
2018-03-18T12:21:22.005Z,100593.45
2018-03-18T12:23:50.161Z,100593.31
2018-03-18T12:26:18.297Z,100586.05
2018-03-18T12:28:46.437Z,100602.08
2018-03-18T12:31:14.581Z,100593.20
2018-03-18T12:33:42.857Z,100585.39
2018-03-18T12:36:10.993Z,100572.34
2018-03-18T12:38:39.120Z,100571.64
2018-03-18T12:41:07.300Z,100584.38
2018-03-18T12:43:35.439Z,100570.31
2018-03-18T12:46:03.598Z,100571.27
2018-03-18T12:48:31.738Z,100573.33
2018-03-18T12:50:59.892Z,100565.14
2018-03-18T12:53:28.053Z,100566.63
2018-03-18T12:55:56.189Z,100565.09
2018-03-18T12:58:24.348Z,100556.55
2018-03-18T13:00:52.858Z,100562.17
2018-03-18T13:03:20.971Z,100558.83
2018-03-18T13:05:49.129Z,100551.09
2018-03-18T13:08:17.295Z,100555.04
2018-03-18T13:10:45.421Z,100545.60
2018-03-18T13:13:13.569Z,100547.13
2018-03-18T13:15:41.714Z,100549.73
2018-03-18T13:18:09.857Z,100545.60
2018-03-18T13:20:37.995Z,100551.84
2018-03-18T13:23:06.141Z,100552.48
2018-03-18T13:25:34.330Z,100554.93
2018-03-18T13:28:02.472Z,100541.32
2018-03-18T13:30:30.603Z,100543.72
2018-03-18T13:32:58.745Z,100548.66
2018-03-18T13:35:26.918Z,100545.48
2018-03-18T13:37:55.124Z,100540.78
2018-03-18T13:40:23.335Z,100538.01
2018-03-18T13:42:51.496Z,100535.71
2018-03-18T13:45:19.607Z,100541.45
2018-03-18T13:47:51.304Z,100540.35
2018-03-18T13:50:19.419Z,100543.34
2018-03-18T13:52:47.543Z,100537.52
2018-03-18T13:55:15.678Z,100534.88
2018-03-18T13:57:43.825Z,100532.47
2018-03-18T14:00:12.034Z,100538.83
2018-03-18T14:02:40.171Z,100536.63
2018-03-18T14:05:08.324Z,100540.17
2018-03-18T14:07:36.464Z,100540.14
2018-03-18T14:10:04.652Z,100539.66
2018-03-18T14:12:32.798Z,100548.31
2018-03-18T14:15:00.969Z,100536.02
2018-03-18T14:17:29.182Z,100534.59
2018-03-18T14:19:57.330Z,100541.64
2018-03-18T14:22:25.487Z,100548.29
2018-03-18T14:24:53.834Z,100545.01
2018-03-18T14:27:22.054Z,100545.70
2018-03-18T14:29:50.232Z,100532.09
2018-03-18T14:32:18.394Z,100539.23
2018-03-18T14:34:46.547Z,100535.20
2018-03-18T14:37:14.714Z,100541.98
2018-03-18T14:39:42.900Z,100535.83
2018-03-18T14:42:11.079Z,100543.54
2018-03-18T14:44:39.212Z,100540.09
2018-03-18T14:47:07.349Z,100544.57
2018-03-18T14:49:35.488Z,100536.64
2018-03-18T14:52:03.634Z,100538.52
2018-03-18T14:54:31.777Z,100539.06
2018-03-18T14:56:59.910Z,100538.67
2018-03-18T14:59:28.158Z,100554.45
2018-03-18T15:01:56.306Z,100555.45
2018-03-18T15:04:24.665Z,100561.69
2018-03-18T15:06:52.808Z,100559.59
2018-03-18T15:09:20.966Z,100559.81
2018-03-18T15:11:49.107Z,100553.51
2018-03-18T15:14:17.227Z,100558.11
2018-03-18T15:16:45.383Z,100561.93
2018-03-18T15:19:13.531Z,100559.45
2018-03-18T15:21:41.676Z,100553.30
2018-03-18T15:24:10.727Z,100569.30
2018-03-18T15:26:38.864Z,100565.92
2018-03-18T15:29:07.006Z,100569.70
2018-03-18T15:31:35.165Z,100569.14
2018-03-18T15:34:03.315Z,100569.89
2018-03-18T15:36:31.460Z,100582.36
2018-03-18T15:38:59.613Z,100578.76
2018-03-18T15:41:27.821Z,100571.15
2018-03-18T15:43:59.481Z,100590.04
2018-03-18T15:46:27.603Z,100576.31
2018-03-18T15:48:55.755Z,100587.33
2018-03-18T15:51:23.884Z,100588.98
2018-03-18T15:53:52.125Z,100600.03
2018-03-18T15:56:20.231Z,100597.49
2018-03-18T15:58:48.473Z,100585.87
2018-03-18T16:01:16.622Z,100581.75
2018-03-18T16:03:45.258Z,100587.27
2018-03-18T16:06:13.504Z,100586.93
2018-03-18T16:08:41.654Z,100602.30
2018-03-18T16:11:09.806Z,100596.82
2018-03-18T16:13:37.970Z,100598.53
2018-03-18T16:16:06.102Z,100590.63
2018-03-18T16:18:34.333Z,100594.75
2018-03-18T16:21:02.481Z,100599.19
2018-03-18T16:23:30.637Z,100597.48
2018-03-18T16:25:58.769Z,100609.95
2018-03-18T16:28:26.913Z,100607.47
2018-03-18T16:31:19.131Z,100608.14
2018-03-18T16:33:48.179Z,100616.96
2018-03-18T16:36:16.327Z,100609.36
2018-03-18T16:38:44.458Z,100612.77
2018-03-18T16:41:12.595Z,100608.98
2018-03-18T16:43:40.844Z,100616.48
2018-03-18T16:46:08.963Z,100612.75
2018-03-18T16:48:37.155Z,100620.23
2018-03-18T16:51:05.298Z,100627.08
2018-03-18T16:53:33.540Z,100635.05
2018-03-18T16:56:01.735Z,100640.21
2018-03-18T16:58:29.862Z,100660.50
2018-03-18T17:00:58.017Z,100650.27
2018-03-18T17:03:26.150Z,100646.78
2018-03-18T17:05:54.259Z,100658.22
2018-03-18T17:08:23.318Z,100654.42
2018-03-18T17:10:51.438Z,100658.81
2018-03-18T17:13:19.579Z,100664.91
2018-03-18T17:15:47.715Z,100687.53
2018-03-18T17:18:15.834Z,100668.91
2018-03-18T17:20:43.961Z,100689.62
2018-03-18T17:23:12.118Z,100695.02
2018-03-18T17:25:40.264Z,100685.07
2018-03-18T17:28:08.422Z,100689.53
2018-03-18T17:30:36.608Z,100699.89
2018-03-18T17:33:04.792Z,100696.23
2018-03-18T17:35:32.906Z,100704.36
2018-03-18T17:38:01.036Z,100704.95
2018-03-18T17:40:29.196Z,100705.36
2018-03-18T17:42:57.335Z,100712.64
2018-03-18T17:45:37.423Z,100723.00
2018-03-18T17:51:20.266Z,100734.02
2018-03-18T17:54:00.214Z,100739.83
2018-03-18T17:56:37.049Z,100747.33
2018-03-18T17:59:05.195Z,100750.83
2018-03-18T18:01:33.361Z,100749.98
2018-03-18T18:04:01.546Z,100760.11
2018-03-18T18:06:29.704Z,100760.11
2018-03-18T18:08:57.835Z,100768.36
2018-03-18T18:11:25.966Z,100771.18
2018-03-18T18:13:54.078Z,100772.25
2018-03-18T18:16:22.205Z,100767.26
2018-03-18T18:18:50.353Z,100769.52
2018-03-18T18:21:18.481Z,100776.23
2018-03-18T18:23:46.615Z,100783.19
2018-03-18T18:26:14.748Z,100787.77
2018-03-18T18:28:42.901Z,100787.55
2018-03-18T18:31:11.034Z,100791.53
2018-03-18T18:33:39.147Z,100797.38
2018-03-18T18:36:07.288Z,100792.67
2018-03-18T18:38:35.435Z,100802.20
2018-03-18T18:41:03.591Z,100808.48
2018-03-18T18:43:31.747Z,100797.34
2018-03-18T18:45:59.865Z,100808.23
2018-03-18T18:48:28.053Z,100801.70
2018-03-18T18:50:56.193Z,100808.19
2018-03-18T18:53:24.340Z,100803.28
2018-03-18T18:55:52.497Z,100811.65
2018-03-18T18:58:20.623Z,100810.61
2018-03-18T19:00:48.783Z,100814.20
2018-03-18T19:03:16.939Z,100816.64
2018-03-18T19:05:45.078Z,100818.56
2018-03-18T19:08:13.220Z,100819.38
2018-03-18T19:10:41.383Z,100825.50
2018-03-18T19:13:09.528Z,100825.93
2018-03-18T19:15:37.662Z,100823.22
2018-03-18T19:18:05.799Z,100823.23
2018-03-18T19:20:33.944Z,100819.17
2018-03-18T19:23:02.096Z,100819.81
2018-03-18T19:25:30.217Z,100821.91
2018-03-18T19:27:58.340Z,100820.66
2018-03-18T19:30:26.467Z,100825.79
2018-03-18T19:32:54.605Z,100820.75
2018-03-18T19:35:22.731Z,100813.09
2018-03-18T19:37:50.861Z,100821.00
2018-03-18T19:40:18.989Z,100811.99
2018-03-18T19:42:47.139Z,100812.20
2018-03-18T19:45:15.279Z,100822.50
2018-03-18T19:47:43.413Z,100820.41
2018-03-18T19:50:11.550Z,100813.86
2018-03-18T19:52:39.700Z,100817.06
2018-03-18T19:55:07.845Z,100814.25
2018-03-18T19:57:36.000Z,100812.80
2018-03-18T20:00:04.124Z,100828.20
2018-03-18T20:02:32.246Z,100833.03
2018-03-18T20:05:00.364Z,100832.34
2018-03-18T20:07:28.504Z,100824.52
2018-03-18T20:09:56.619Z,100826.80
2018-03-18T20:12:24.771Z,100834.20
2018-03-18T20:14:52.905Z,100833.95
2018-03-18T20:17:21.032Z,100838.97
2018-03-18T20:19:49.198Z,100840.28
2018-03-18T20:22:17.329Z,100837.44
2018-03-18T20:24:45.481Z,100839.16
2018-03-18T20:27:13.617Z,100841.72
2018-03-18T20:29:41.741Z,100846.20
2018-03-18T20:32:09.889Z,100848.16
2018-03-18T20:34:38.024Z,100843.31
2018-03-18T20:37:06.179Z,100853.16
2018-03-18T20:39:34.301Z,100850.95
2018-03-18T20:42:02.428Z,100854.67
2018-03-18T20:44:30.596Z,100856.11
2018-03-18T20:46:58.742Z,100847.33
2018-03-18T20:49:26.930Z,100852.56
2018-03-18T20:51:55.096Z,100857.30
2018-03-18T20:54:23.242Z,100863.17
2018-03-18T20:56:51.378Z,100851.61
2018-03-18T20:59:19.515Z,100851.41
2018-03-18T21:01:47.637Z,100860.62
2018-03-18T21:04:15.795Z,100855.62
2018-03-18T21:06:43.943Z,100861.28
2018-03-18T21:09:12.074Z,100865.02
2018-03-18T21:11:40.216Z,100855.99
2018-03-18T21:14:08.383Z,100865.06
2018-03-18T21:16:36.498Z,100863.41
2018-03-18T21:19:04.669Z,100860.42
2018-03-18T21:21:32.804Z,100863.92
2018-03-18T21:24:00.937Z,100862.97
2018-03-18T21:26:29.076Z,100859.08
2018-03-18T21:28:57.234Z,100866.59
2018-03-18T21:31:25.376Z,100865.97
2018-03-18T21:33:53.569Z,100867.99
2018-03-18T21:36:21.710Z,100860.41
2018-03-18T21:38:49.842Z,100868.02
2018-03-18T21:41:17.977Z,100862.18
2018-03-18T21:43:46.108Z,100858.27
2018-03-18T21:46:14.289Z,100862.78
2018-03-18T21:48:42.427Z,100862.62
2018-03-18T21:51:10.584Z,100855.52
2018-03-18T21:53:38.703Z,100860.16
2018-03-18T21:56:06.906Z,100848.14
2018-03-18T21:58:35.063Z,100854.92
2018-03-18T22:01:03.222Z,100855.03
2018-03-18T22:03:31.348Z,100849.56
2018-03-18T22:05:59.485Z,100854.56
2018-03-18T22:08:27.605Z,100853.24
2018-03-18T22:10:55.745Z,100853.41
2018-03-18T22:13:23.863Z,100860.56
2018-03-18T22:15:52.009Z,100848.03
2018-03-18T22:18:20.121Z,100861.17
2018-03-18T22:20:48.658Z,100858.97
2018-03-18T22:23:16.901Z,100849.38
2018-03-18T22:25:45.015Z,100857.28
2018-03-18T22:28:13.170Z,100853.06
2018-03-18T22:30:41.298Z,100851.94
2018-03-18T22:33:09.456Z,100861.61
2018-03-18T22:35:37.585Z,100867.06
2018-03-18T22:38:05.743Z,100867.87
2018-03-18T22:40:33.843Z,100862.42
2018-03-18T22:43:01.990Z,100858.88
2018-03-18T22:45:30.137Z,100858.52
2018-03-18T22:47:58.261Z,100861.09
2018-03-18T22:50:26.476Z,100858.44
2018-03-18T22:52:54.629Z,100856.84
2018-03-18T22:55:22.818Z,100843.62
2018-03-18T22:57:51.001Z,100852.83
2018-03-18T23:00:19.223Z,100854.09
2018-03-18T23:02:47.360Z,100852.33
2018-03-18T23:05:15.563Z,100857.69
2018-03-18T23:07:43.675Z,100848.91
2018-03-18T23:10:11.816Z,100846.19
2018-03-18T23:12:39.944Z,100839.02
2018-03-18T23:15:08.081Z,100844.36
2018-03-18T23:17:36.209Z,100845.20
2018-03-18T23:20:04.343Z,100852.25
2018-03-18T23:22:32.480Z,100849.95
2018-03-18T23:25:00.604Z,100847.48
2018-03-18T23:27:28.764Z,100849.19
2018-03-18T23:29:56.900Z,100852.41
2018-03-18T23:32:25.033Z,100845.65
2018-03-18T23:34:53.208Z,100850.45
2018-03-18T23:37:21.402Z,100858.14
2018-03-18T23:39:49.526Z,100848.05
2018-03-18T23:42:17.663Z,100841.31
2018-03-18T23:44:45.802Z,100841.80
2018-03-18T23:47:13.932Z,100849.66
2018-03-18T23:49:42.055Z,100843.73
2018-03-18T23:52:10.180Z,100838.91
2018-03-18T23:54:38.335Z,100841.59
2018-03-18T23:57:06.468Z,100846.63
2018-03-18T23:59:34.598Z,100846.05
